createdAt,value
2023-02-06T00:01:04.006Z,6.65
2023-02-06T00:04:06.621Z,7.50
2023-02-06T00:07:08.970Z,8.20
2023-02-06T00:10:11.555Z,8.68
2023-02-06T00:13:13.867Z,9.88
2023-02-06T00:16:29.672Z,9.45
2023-02-06T00:19:31.974Z,10.10
2023-02-06T00:22:35.222Z,10.32
2023-02-06T00:25:37.720Z,11.02
2023-02-06T00:28:41.054Z,11.12
2023-02-06T00:31:43.457Z,10.38
2023-02-06T00:34:46.081Z,11.23
2023-02-06T00:37:48.814Z,10.60
2023-02-06T00:40:51.524Z,11.05
2023-02-06T00:43:53.822Z,9.82
2023-02-06T00:46:59.222Z,9.77
2023-02-06T00:50:04.182Z,10.30
2023-02-06T00:53:06.789Z,10.50
2023-02-06T00:56:09.099Z,9.95
2023-02-06T00:59:11.706Z,10.13
2023-02-06T01:02:14.825Z,9.57
2023-02-06T01:05:17.790Z,9.43
2023-02-06T01:08:20.184Z,9.15
2023-02-06T01:11:25.285Z,9.13
2023-02-06T01:14:28.405Z,7.78
2023-02-06T01:17:33.111Z,7.65
2023-02-06T01:20:35.717Z,7.35
2023-02-06T01:26:41.956Z,6.05
2023-02-06T01:29:44.574Z,5.75
2023-02-06T01:32:46.955Z,6.65
2023-02-06T01:35:56.915Z,5.25
2023-02-06T01:38:59.254Z,5.75
2023-02-06T01:42:02.393Z,5.93
2023-02-06T01:45:26.111Z,6.22
2023-02-06T01:48:51.025Z,6.15
2023-02-06T01:52:04.281Z,6.47
2023-02-06T01:55:07.195Z,6.18
2023-02-06T01:58:13.840Z,6.07
2023-02-06T02:01:17.158Z,6.68
2023-02-06T02:04:22.768Z,6.53
2023-02-06T02:07:28.999Z,6.07
2023-02-06T02:10:33.343Z,5.90
2023-02-06T02:13:38.461Z,6.70
2023-02-06T02:17:29.605Z,5.80
2023-02-06T02:21:08.425Z,6.00
2023-02-06T02:24:23.529Z,6.25
2023-02-06T02:27:53.200Z,5.50
2023-02-06T02:31:31.757Z,5.35
2023-02-06T02:34:43.282Z,4.82
2023-02-06T02:37:45.636Z,5.47
2023-02-06T02:40:58.214Z,5.35
2023-02-06T02:44:19.462Z,4.95
2023-02-06T02:47:29.987Z,5.07
2023-02-06T02:50:33.272Z,5.20
2023-02-06T02:53:36.541Z,5.43
2023-02-06T02:56:38.980Z,6.12
2023-02-06T02:59:46.149Z,6.15
2023-02-06T03:02:50.493Z,5.47
2023-02-06T03:06:20.442Z,5.60
2023-02-06T03:09:39.262Z,4.97
2023-02-06T03:12:52.876Z,4.80
2023-02-06T03:16:14.383Z,5.30
2023-02-06T03:19:23.936Z,4.85
2023-02-06T03:22:28.840Z,5.37
2023-02-06T03:25:36.499Z,4.85
2023-02-06T03:28:44.925Z,4.78
2023-02-06T03:31:53.223Z,4.93
2023-02-06T03:34:59.992Z,6.07
2023-02-06T03:38:04.836Z,5.18
2023-02-06T03:41:08.277Z,4.75
2023-02-06T03:44:15.424Z,4.87
2023-02-06T03:47:19.065Z,4.60
2023-02-06T03:53:26.418Z,4.20
2023-02-06T03:59:35.068Z,3.67
2023-02-06T04:02:38.867Z,5.10
2023-02-06T04:05:41.788Z,4.50
2023-02-06T04:08:44.079Z,4.40
2023-02-06T04:11:46.673Z,4.28
2023-02-06T04:14:49.456Z,4.45
2023-02-06T04:18:00.142Z,4.50
2023-02-06T04:21:07.288Z,3.67
2023-02-06T04:24:09.948Z,4.57
2023-02-06T04:27:14.198Z,4.45
2023-02-06T04:30:17.981Z,4.70
2023-02-06T04:33:20.465Z,5.07
2023-02-06T04:36:23.187Z,4.15
2023-02-06T04:39:26.193Z,4.68
2023-02-06T04:42:28.775Z,5.43
2023-02-06T04:45:31.077Z,4.37
2023-02-06T04:48:33.725Z,4.65
2023-02-06T04:51:36.454Z,4.43
2023-02-06T04:54:39.080Z,4.87
2023-02-06T04:57:41.849Z,4.68
2023-02-06T05:00:44.458Z,4.53
2023-02-06T05:03:47.202Z,4.37
2023-02-06T05:06:49.804Z,4.03
2023-02-06T05:09:52.078Z,3.85
2023-02-06T05:12:56.110Z,4.62
2023-02-06T05:16:04.198Z,4.62
2023-02-06T05:19:06.828Z,4.35
2023-02-06T05:22:09.112Z,4.87
2023-02-06T05:25:11.762Z,5.00
2023-02-06T05:28:14.083Z,4.87
2023-02-06T05:31:19.985Z,4.93
2023-02-06T05:34:22.566Z,4.97
2023-02-06T05:37:25.130Z,4.85
2023-02-06T05:40:27.503Z,4.95
2023-02-06T05:43:30.290Z,5.00
2023-02-06T05:46:33.203Z,4.90
2023-02-06T05:49:35.863Z,4.87
2023-02-06T05:52:38.160Z,5.15
2023-02-06T05:55:40.721Z,5.32
2023-02-06T05:58:43.069Z,6.80
2023-02-06T06:01:45.662Z,7.10
2023-02-06T06:04:48.278Z,5.57
2023-02-06T06:07:50.594Z,5.43
2023-02-06T06:10:53.233Z,5.40
2023-02-06T06:13:55.728Z,6.25
2023-02-06T06:16:58.332Z,6.22
2023-02-06T06:20:00.801Z,5.22
2023-02-06T06:23:03.425Z,5.30
2023-02-06T06:26:05.808Z,4.95
2023-02-06T06:29:08.610Z,5.55
2023-02-06T06:32:11.140Z,4.87
2023-02-06T06:35:13.754Z,4.95
2023-02-06T06:38:16.125Z,8.20
2023-02-06T06:41:18.757Z,6.93
2023-02-06T06:44:21.322Z,6.50
2023-02-06T06:47:23.977Z,5.05
2023-02-06T06:50:26.457Z,4.95
2023-02-06T06:53:29.037Z,4.72
2023-02-06T06:56:31.345Z,4.80
2023-02-06T06:59:33.938Z,4.43
2023-02-06T07:02:36.592Z,4.70
2023-02-06T07:05:39.407Z,4.82
2023-02-06T07:08:42.339Z,4.25
2023-02-06T07:11:44.952Z,5.07
2023-02-06T07:14:47.447Z,4.10
2023-02-06T07:17:50.172Z,4.45
2023-02-06T07:20:52.513Z,5.28
2023-02-06T07:23:55.395Z,4.57
2023-02-06T07:26:59.389Z,5.37
2023-02-06T07:30:02.060Z,4.40
2023-02-06T07:33:05.533Z,4.03
2023-02-06T07:36:13.403Z,3.80
2023-02-06T07:39:15.737Z,4.05
2023-02-06T07:42:18.950Z,4.18
2023-02-06T07:45:24.896Z,4.60
2023-02-06T07:48:28.669Z,4.68
2023-02-06T07:51:31.051Z,5.80
2023-02-06T07:54:33.795Z,5.37
2023-02-06T07:57:36.663Z,5.53
2023-02-06T08:00:40.667Z,5.83
2023-02-06T08:06:45.819Z,5.25
2023-02-06T08:09:49.034Z,4.93
2023-02-06T08:12:51.384Z,5.60
2023-02-06T08:15:54.197Z,4.70
2023-02-06T08:18:56.684Z,4.95
2023-02-06T08:21:59.414Z,5.62
2023-02-06T08:25:01.798Z,5.72
2023-02-06T08:28:19.500Z,5.95
2023-02-06T08:31:27.102Z,6.20
2023-02-06T08:34:30.586Z,5.97
2023-02-06T08:37:33.516Z,6.62
2023-02-06T08:40:36.008Z,6.10
2023-02-06T08:43:38.669Z,6.43
2023-02-06T08:46:41.672Z,6.82
2023-02-06T08:49:44.312Z,6.72
2023-02-06T08:52:46.685Z,7.07
2023-02-06T08:55:49.409Z,7.53
2023-02-06T08:58:51.997Z,7.18
2023-02-06T09:01:54.884Z,7.85
2023-02-06T09:04:57.179Z,7.03
2023-02-06T09:08:01.172Z,7.87
2023-02-06T09:11:12.247Z,6.82
2023-02-06T09:14:16.990Z,7.43
2023-02-06T09:17:19.353Z,7.32
2023-02-06T09:20:22.566Z,6.78
2023-02-06T09:23:24.962Z,7.15
2023-02-06T09:26:33.606Z,6.90
2023-02-06T09:29:37.663Z,7.35
2023-02-06T09:32:40.799Z,7.40
2023-02-06T09:35:43.257Z,7.00
2023-02-06T09:38:48.899Z,7.18
2023-02-06T09:41:55.247Z,6.95
2023-02-06T09:45:18.278Z,7.78
2023-02-06T09:48:25.055Z,7.25
2023-02-06T09:51:49.892Z,7.43
2023-02-06T09:55:07.370Z,7.30
2023-02-06T09:58:23.923Z,7.28
2023-02-06T10:01:34.808Z,7.85
2023-02-06T10:04:59.704Z,7.65
2023-02-06T10:11:54.880Z,8.13
2023-02-06T10:15:34.858Z,7.80
2023-02-06T10:19:09.658Z,7.57
2023-02-06T10:22:12.721Z,8.10
2023-02-06T10:25:29.196Z,7.78
2023-02-06T10:28:35.472Z,7.68
2023-02-06T10:31:41.236Z,7.65
2023-02-06T10:35:17.471Z,7.93
2023-02-06T10:38:51.554Z,7.87
2023-02-06T10:42:01.167Z,7.10
2023-02-06T10:45:24.022Z,6.70
2023-02-06T10:48:36.285Z,6.57
2023-02-06T10:51:44.800Z,10.98
2023-02-06T10:54:54.862Z,8.43
2023-02-06T10:58:18.882Z,6.62
2023-02-06T11:01:26.606Z,6.20
2023-02-06T11:04:44.543Z,6.43
2023-02-06T11:07:51.538Z,6.32
2023-02-06T11:10:54.927Z,6.65
2023-02-06T11:14:25.339Z,6.77
2023-02-06T11:17:28.527Z,6.12
2023-02-06T11:20:34.286Z,12.30
2023-02-06T11:23:37.343Z,7.25
2023-02-06T11:26:46.963Z,6.70
2023-02-06T11:29:52.202Z,5.30
2023-02-06T11:33:20.226Z,5.97
2023-02-06T11:36:29.544Z,6.12
2023-02-06T11:39:33.411Z,5.90
2023-02-06T11:42:38.000Z,5.93
2023-02-06T11:45:41.220Z,5.18
2023-02-06T11:49:00.641Z,5.65
2023-02-06T11:52:04.014Z,6.18
2023-02-06T11:55:20.175Z,6.10
2023-02-06T11:58:26.372Z,5.82
2023-02-06T12:01:38.577Z,5.87
2023-02-06T12:04:41.570Z,6.15
2023-02-06T12:08:16.002Z,5.68
2023-02-06T12:11:46.130Z,6.47
2023-02-06T12:14:55.135Z,6.05
2023-02-06T12:18:03.815Z,6.00
2023-02-06T12:21:53.737Z,5.93
2023-02-06T12:24:58.009Z,5.37
2023-02-06T12:28:24.911Z,5.68
2023-02-06T12:31:59.158Z,5.75
2023-02-06T12:35:14.469Z,6.30
2023-02-06T12:38:26.380Z,6.05
2023-02-06T12:41:47.193Z,5.25
2023-02-06T12:44:52.673Z,5.82
2023-02-06T12:48:04.148Z,5.75
2023-02-06T12:51:15.429Z,5.45
2023-02-06T12:54:20.478Z,5.45
2023-02-06T12:57:27.363Z,5.60
2023-02-06T13:00:35.552Z,6.57
2023-02-06T13:03:54.526Z,6.30
2023-02-06T13:07:05.675Z,6.43
2023-02-06T13:10:16.548Z,6.22
2023-02-06T13:13:49.641Z,6.68
2023-02-06T13:17:11.820Z,6.15
2023-02-06T13:20:16.953Z,5.65
2023-02-06T13:23:24.282Z,6.35
2023-02-06T13:27:08.425Z,5.93
2023-02-06T13:30:40.133Z,6.37
2023-02-06T13:33:55.428Z,6.60
2023-02-06T13:37:37.455Z,6.15
2023-02-06T13:40:39.771Z,5.93
2023-02-06T13:43:42.560Z,5.93
2023-02-06T13:47:00.270Z,6.07
2023-02-06T13:50:32.377Z,5.75
2023-02-06T13:53:43.542Z,5.57
2023-02-06T13:57:16.941Z,6.03
2023-02-06T14:00:21.517Z,6.12
2023-02-06T14:03:29.525Z,5.68
2023-02-06T14:06:43.988Z,5.93
2023-02-06T14:10:05.246Z,5.85
2023-02-06T14:13:28.472Z,6.12
2023-02-06T14:16:42.986Z,5.80
2023-02-06T14:20:16.191Z,5.75
2023-02-06T14:24:06.896Z,5.82
2023-02-06T14:27:37.367Z,5.87
2023-02-06T14:30:59.080Z,5.62
2023-02-06T14:34:38.859Z,5.53
2023-02-06T14:38:09.647Z,5.93
2023-02-06T14:41:12.352Z,5.45
2023-02-06T14:44:21.433Z,5.55
2023-02-06T14:47:33.076Z,6.07
2023-02-06T14:50:40.497Z,5.68
2023-02-06T14:53:52.642Z,5.68
2023-02-06T14:56:56.933Z,5.45
2023-02-06T15:00:06.432Z,5.97
2023-02-06T15:03:16.565Z,5.70
2023-02-06T15:06:34.479Z,5.50
2023-02-06T15:09:43.983Z,7.68
2023-02-06T15:12:53.824Z,10.93
2023-02-06T15:15:57.101Z,5.95
2023-02-06T15:19:17.252Z,5.40
2023-02-06T15:22:29.814Z,6.07
2023-02-06T15:26:10.336Z,5.45
2023-02-06T15:29:26.988Z,5.43
2023-02-06T15:32:33.313Z,6.10
2023-02-06T15:35:41.436Z,6.22
2023-02-06T15:38:43.911Z,5.90
2023-02-06T15:41:51.418Z,5.45
2023-02-06T15:44:54.157Z,5.90
2023-02-06T15:47:58.749Z,5.85
2023-02-06T15:51:22.258Z,5.78
2023-02-06T15:54:27.131Z,5.72
2023-02-06T15:57:34.044Z,5.37
2023-02-06T16:00:37.792Z,5.70
2023-02-06T16:03:41.657Z,6.20
2023-02-06T16:06:58.699Z,5.70
2023-02-06T16:10:04.266Z,6.18
2023-02-06T16:13:17.130Z,6.65
2023-02-06T16:16:22.895Z,23.73
2023-02-06T16:19:40.869Z,8.73
2023-02-06T16:22:43.808Z,6.47
2023-02-06T16:25:49.158Z,6.37
2023-02-06T16:28:57.294Z,6.50
2023-02-06T16:32:02.662Z,7.68
2023-02-06T16:35:05.672Z,6.85
2023-02-06T16:38:10.260Z,6.68
2023-02-06T16:41:26.582Z,8.05
2023-02-06T16:44:43.799Z,7.25
2023-02-06T16:47:47.436Z,7.53
2023-02-06T16:50:49.846Z,6.90
2023-02-06T16:53:53.040Z,7.53
2023-02-06T16:56:57.503Z,7.45
2023-02-06T17:00:00.566Z,6.75
2023-02-06T17:03:03.076Z,6.55
2023-02-06T17:06:06.590Z,7.07
2023-02-06T17:09:11.058Z,6.75
2023-02-06T17:12:16.720Z,6.37
2023-02-06T17:15:19.797Z,7.18
2023-02-06T17:18:23.946Z,7.20
2023-02-06T17:21:28.351Z,6.50
2023-02-06T17:24:31.007Z,7.12
2023-02-06T17:27:33.379Z,6.70
2023-02-06T17:30:38.162Z,6.37
2023-02-06T17:33:40.822Z,6.90
2023-02-06T17:36:45.228Z,7.10
2023-02-06T17:39:51.949Z,7.47
2023-02-06T17:42:55.431Z,7.22
2023-02-06T17:45:57.776Z,8.27
2023-02-06T17:49:00.428Z,7.07
2023-02-06T17:52:02.914Z,8.18
2023-02-06T17:55:05.778Z,8.07
2023-02-06T17:58:08.457Z,8.10
2023-02-06T18:01:17.583Z,8.10
2023-02-06T18:04:21.371Z,8.60
2023-02-06T18:07:23.683Z,9.07
2023-02-06T18:10:26.800Z,7.93
2023-02-06T18:13:29.143Z,8.52
2023-02-06T18:16:31.981Z,8.60
2023-02-06T18:19:41.785Z,9.45
2023-02-06T18:22:45.040Z,9.75
2023-02-06T18:25:47.478Z,13.68
2023-02-06T18:28:50.228Z,11.35
2023-02-06T18:31:52.653Z,10.38
2023-02-06T18:34:55.626Z,10.02
2023-02-06T18:37:57.986Z,9.55
2023-02-06T18:41:05.849Z,9.55
2023-02-06T18:44:09.891Z,9.93
2023-02-06T18:47:14.802Z,10.00
2023-02-06T18:50:20.384Z,10.40
2023-02-06T18:53:23.089Z,9.85
2023-02-06T18:56:25.985Z,9.98
2023-02-06T18:59:29.141Z,11.32
2023-02-06T19:02:31.599Z,10.57
2023-02-06T19:05:37.468Z,9.38
2023-02-06T19:08:42.890Z,9.57
2023-02-06T19:12:32.145Z,9.32
2023-02-06T19:15:49.260Z,12.02
2023-02-06T19:18:57.886Z,11.07
2023-02-06T19:22:05.172Z,9.93
2023-02-06T19:25:12.600Z,11.40
2023-02-06T19:28:16.812Z,12.37
2023-02-06T19:31:26.493Z,13.20
2023-02-06T19:34:28.986Z,12.80
2023-02-06T19:37:31.886Z,12.98
2023-02-06T19:40:36.211Z,14.30
2023-02-06T19:43:40.182Z,13.57
2023-02-06T19:46:42.704Z,12.82
2023-02-06T19:49:45.442Z,11.82
2023-02-06T19:52:47.982Z,11.12
2023-02-06T19:55:50.696Z,12.65
2023-02-06T19:58:59.735Z,10.60
2023-02-06T20:02:02.959Z,10.25
2023-02-06T20:05:05.902Z,9.50
2023-02-06T20:08:08.546Z,9.65
2023-02-06T20:11:20.193Z,9.57
2023-02-06T20:14:23.952Z,9.10
2023-02-06T20:17:27.012Z,9.65
2023-02-06T20:20:29.397Z,8.57
2023-02-06T20:23:37.501Z,8.50
2023-02-06T20:26:42.631Z,8.68
2023-02-06T20:29:46.660Z,9.68
2023-02-06T20:32:49.223Z,9.23
2023-02-06T20:35:51.915Z,8.32
2023-02-06T20:38:57.422Z,9.10
2023-02-06T20:42:00.565Z,8.43
2023-02-06T20:45:03.052Z,8.70
2023-02-06T20:48:05.901Z,7.80
2023-02-06T20:51:08.234Z,7.70
2023-02-06T20:54:12.331Z,9.00
2023-02-06T20:57:15.460Z,8.30
2023-02-06T21:00:18.388Z,8.43
2023-02-06T21:03:21.106Z,8.75
2023-02-06T21:06:24.219Z,9.23
2023-02-06T21:09:26.819Z,7.75
2023-02-06T21:12:29.558Z,8.07
2023-02-06T21:15:31.950Z,8.68
2023-02-06T21:18:34.711Z,10.63
2023-02-06T21:21:37.597Z,9.48
2023-02-06T21:24:40.261Z,8.95
2023-02-06T21:27:42.610Z,8.57
2023-02-06T21:30:46.015Z,8.23
2023-02-06T21:33:49.539Z,8.23
2023-02-06T21:36:53.804Z,8.70
2023-02-06T21:42:58.646Z,7.30
2023-02-06T21:46:01.305Z,8.25
2023-02-06T21:49:06.366Z,8.70
2023-02-06T21:52:08.704Z,8.57
2023-02-06T21:55:11.739Z,8.60
2023-02-06T21:58:17.305Z,9.52
2023-02-06T22:01:21.875Z,8.32
2023-02-06T22:04:24.583Z,8.65
2023-02-06T22:07:26.935Z,9.10
2023-02-06T22:10:29.628Z,7.65
2023-02-06T22:13:31.935Z,8.20
2023-02-06T22:16:34.673Z,8.60
2023-02-06T22:19:37.791Z,9.27
2023-02-06T22:22:41.186Z,8.38
2023-02-06T22:25:50.124Z,8.33
2023-02-06T22:28:52.876Z,8.30
2023-02-06T22:31:55.141Z,8.60
2023-02-06T22:35:01.032Z,8.60
2023-02-06T22:38:03.373Z,8.25
2023-02-06T22:41:08.301Z,9.02
2023-02-06T22:44:12.540Z,8.05
2023-02-06T22:47:15.228Z,8.90
2023-02-06T22:50:17.696Z,8.43
2023-02-06T22:53:33.824Z,8.35
2023-02-06T22:56:38.324Z,7.87
2023-02-06T22:59:41.020Z,8.30
2023-02-06T23:02:43.679Z,8.98
2023-02-06T23:05:46.426Z,10.13
2023-02-06T23:08:49.109Z,9.00
2023-02-06T23:11:52.876Z,10.45
2023-02-06T23:14:56.377Z,9.90
2023-02-06T23:17:59.007Z,9.70
2023-02-06T23:21:10.876Z,10.40
2023-02-06T23:24:14.940Z,10.82
2023-02-06T23:27:19.659Z,10.93
2023-02-06T23:30:22.297Z,11.35
2023-02-06T23:33:25.287Z,12.25
2023-02-06T23:36:28.908Z,11.40
2023-02-06T23:39:31.270Z,10.13
2023-02-06T23:42:34.630Z,11.10
2023-02-06T23:45:37.555Z,11.57
2023-02-06T23:48:40.690Z,11.00
2023-02-06T23:51:43.120Z,10.32
2023-02-06T23:54:45.748Z,10.27
2023-02-06T23:57:48.182Z,10.40
